Thursday, November 23, 2017, 7:23 PM EST
Back to Local

KJYO, Leesburg / Godfrey

Location: Leesburg, VA, United States Lat: 39.083
Local Time: 7:23 PM EST ( 0:23 GMT) Lon: -77.567
Time Zone: US/Eastern Elev: 390 ft

Show me the last for .
Show Coded

Time T Td Feel RH Dir Speed Gust Alt SLP Vis Weather Sky Remarks
2017-11-23 18:55 34 28 - 80 - Calm - 30.06 - 10 CLR None
2017-11-23 18:35 36 28 - 74 - Calm - 30.06 - 10 CLR None
2017-11-23 18:15 36 28 - 74 - Calm - 30.06 - 10 CLR None
2017-11-23 17:55 37 28 - 69 - Calm - 30.07 - 10 CLR None
2017-11-23 17:35 41 28 - 60 - Calm - 30.07 - 10 CLR None
2017-11-23 17:15 41 27 - 56 - Calm - 30.07 - 10 CLR None
2017-11-23 16:55 43 27 - 52 - Calm - 30.06 - 10 CLR None
2017-11-23 16:35 43 27 - 52 - Calm - 30.07 - 10 CLR None
2017-11-23 16:15 43 27 - 52 - Calm - 30.06 - 10 CLR None
2017-11-23 15:55 45 27 - 48 - Calm - 30.07 - 10 CLR None
2017-11-23 15:35 45 27 42 48 300° 5 - 30.07 - 10 CLR None
2017-11-23 15:15 45 27 43 48 250° 3 - 30.07 - 10 CLR None
2017-11-23 14:55 45 27 - 48 - Calm - 30.07 - 10 CLR None
2017-11-23 14:35 45 27 43 48 240° 3 - 30.07 - 10 CLR None
2017-11-23 14:15 45 27 41 48 300° 7 - 30.08 - 10 CLR None
2017-11-23 13:55 45 27 - 48 - Calm - 30.09 - 10 CLR None
2017-11-23 13:35 45 27 41 48 310° 6 - 30.09 - 10 CLR None
2017-11-23 13:15 43 27 40 52 360° 5 - 30.10 - 10 CLR None
2017-11-23 12:55 43 27 40 52 300° 5 - 30.10 - 10 CLR None
2017-11-23 12:35 43 27 39 52 320° 7 - 30.11 - 10 CLR None
2017-11-23 12:15 43 27 39 52 360° 7 - 30.12 - 10 CLR None
2017-11-23 11:55 43 27 39 52 300° 7 - 30.13 - 10 CLR None
2017-11-23 11:35 41 27 39 56 50° 3 - 30.14 - 10 CLR None
2017-11-23 11:15 41 27 38 56 10° 5 - 30.16 - 10 CLR None
2017-11-23 10:55 39 27 35 60 320° 6 - 30.16 - 10 CLR None
2017-11-23 10:35 39 27 36 60 340° 5 - 30.18 - 10 CLR None
2017-11-23 10:15 37 27 34 64 330° 5 - 30.19 - 10 CLR None
2017-11-23 09:55 37 27 31 64 350° 9 - 30.19 - 10 CLR None
2017-11-23 09:35 37 27 31 64 360° 8 - 30.19 - 10 CLR None
2017-11-23 09:15 36 27 30 69 340° 7 - 30.20 - 10 CLR None
2017-11-23 08:55 36 27 31 69 330° 6 - 30.21 - 10 CLR None
2017-11-23 08:35 34 27 - 74 - Calm - 30.21 - 10 CLR None
2017-11-23 08:15 32 28 29 86 290° 3 - 30.22 - 10 CLR None
2017-11-23 07:55 28 27 22 92 310° 6 - 30.21 - 10 CLR None
2017-11-23 07:35 27 25 23 92 300° 3 - 30.20 - 10 CLR None
2017-11-23 07:15 27 23 21 86 310° 5 - 30.19 - 10 CLR None
2017-11-23 06:55 27 25 20 92 310° 6 - 30.19 - 10 CLR None
2017-11-23 06:35 28 25 22 86 310° 6 - 30.19 - 10 CLR None
2017-11-23 06:15 28 27 - 92 - Calm - 30.19 - 10 CLR None
2017-11-23 05:55 28 27 23 92 300° 5 - 30.19 - 10 CLR None
2017-11-23 05:35 28 25 - 86 - Calm - 30.19 - 10 CLR None
2017-11-23 05:15 30 27 - 86 - Calm - 30.18 - 10 CLR None
2017-11-23 04:55 30 27 27 86 310° 3 - 30.18 - 10 CLR None
2017-11-23 04:35 32 25 27 74 320° 5 - 30.18 - 10 CLR None
2017-11-23 04:15 32 25 29 74 340° 3 - 30.17 - 10 CLR None
2017-11-23 03:55 32 25 26 74 330° 7 - 30.17 - 10 CLR None
2017-11-23 03:35 32 25 29 74 330° 3 - 30.18 - 10 CLR None
2017-11-23 03:15 32 27 26 80 330° 6 - 30.18 - 10 CLR None
2017-11-23 02:55 32 27 29 80 340° 3 - 30.18 - 10 CLR None
2017-11-23 02:35 32 27 29 80 340° 3 - 30.18 - 10 CLR None
2017-11-23 02:15 34 27 30 74 340° 5 - 30.18 - 10 CLR None
2017-11-23 01:55 32 27 - 80 - Calm - 30.18 - 10 CLR None
2017-11-23 01:35 32 27 27 80 300° 5 - 30.18 - 10 CLR None
2017-11-23 01:15 34 27 27 74 330° 8 - 30.17 - 10 CLR None
2017-11-23 00:55 34 27 26 74 340° 10 - 30.18 - 10 CLR None
2017-11-23 00:35 32 27 27 80 340° 5 - 30.19 - 10 CLR None
2017-11-23 00:15 34 27 26 74 350° 10 - 30.18 - 10 CLR None
2017-11-22 23:55 34 28 26 80 330° 10 - 30.19 - 10 CLR None
2017-11-22 23:35 34 27 28 74 330° 7 - 30.20 - 10 CLR None
2017-11-22 23:15 36 27 29 69 330° 8 - 30.20 - 10 CLR None
2017-11-22 22:55 36 27 32 69 310° 5 - 30.21 - 10 CLR None
2017-11-22 22:35 36 27 29 69 320° 9 - 30.21 - 10 SCT039 None
2017-11-22 22:15 37 27 33 64 360° 6 - 30.21 - 10 CLR None
2017-11-22 21:55 37 27 27 64 350° 6 21 30.21 - 10 CLR None
2017-11-22 21:35 37 27 27 64 330° 14 20 30.20 - 10 CLR None
2017-11-22 21:15 37 28 28 69 330° 16 - 30.20 - 10 CLR None
2017-11-22 20:55 37 27 31 64 330° 8 - 30.20 - 10 CLR None
2017-11-22 20:35 37 28 34 69 340° 5 - 30.19 - 10 SCT043 None
2017-11-22 20:15 39 28 33 64 340° 9 - 30.18 - 10 BKN043 None
2017-11-22 19:55 39 28 33 64 330° 6 9 30.18 - 10 SCT043 None
2017-11-22 19:35 39 28 30 64 340° 8 17 30.18 - 10 CLR None

Support USWX by starting your Amazon purchase here.